Time;durP1;ratioP1;P1;durP2;ratioP2;P2;SDS_P1;SDS_P2;PMS_P1;PMS_P2;Temp;Humidity;BMP_temperature;BMP_pressure;BME280_temperature;BME280_humidity;BME280_pressure;Samples;Min_cycle;Max_cycle;Signal;HPM_P1;HPM_P2
2021/12/13 00:01:07;;;;;;;198.52;58.58;;;9.40;99.90;;;;;;5111642;28;20078;-71
2021/12/13 00:03:48;;;;;;;180.93;57.38;;;9.40;99.90;;;;;;5095623;28;20043;-71
2021/12/13 00:06:19;;;;;;;176.38;54.47;;;9.40;99.90;;;;;;5110573;28;20086;-71
2021/12/13 00:08:50;;;;;;;191.20;57.00;;;9.30;99.90;;;;;;5110088;28;20055;-71
2021/12/13 00:11:20;;;;;;;178.98;56.47;;;9.40;99.90;;;;;;5111205;28;20069;-71
2021/12/13 00:13:52;;;;;;;193.23;56.58;;;9.40;99.90;;;;;;5110473;28;20092;-71
2021/12/13 00:16:31;;;;;;;186.32;57.33;;;9.30;99.90;;;;;;5110179;28;20465;-72
2021/12/13 00:19:02;;;;;;;183.27;57.67;;;9.30;99.90;;;;;;5111089;28;20020;-71
2021/12/13 00:21:33;;;;;;;180.52;56.72;;;9.30;99.90;;;;;;5110073;28;20058;-71
2021/12/13 00:24:03;;;;;;;180.02;56.85;;;9.40;99.90;;;;;;5109822;28;20015;-71
2021/12/13 00:26:37;;;;;;;190.07;56.38;;;9.40;99.90;;;;;;5109398;28;20020;-71
2021/12/13 00:29:23;;;;;;;190.45;57.58;;;9.30;99.90;;;;;;5110170;28;20028;-71
2021/12/13 00:32:15;;;;;;;194.23;59.92;;;9.30;99.90;;;;;;5109272;28;20020;-71
2021/12/13 00:34:48;;;;;;;181.32;56.70;;;9.30;99.90;;;;;;5109246;28;20051;-71
2021/12/13 00:37:26;;;;;;;179.75;58.58;;;;;;;;;;5110997;28;20030;-71
2021/12/13 00:40:00;;;;;;;181.02;61.67;;;9.40;99.90;;;;;;5109137;28;20487;-71
2021/12/13 00:42:32;;;;;;;200.65;62.55;;;9.40;99.90;;;;;;5091925;28;20040;-71
2021/12/13 00:45:05;;;;;;;181.48;60.85;;;9.40;99.90;;;;;;5109473;28;20024;-71
2021/12/13 00:47:33;;;;;;;183.68;61.10;;;9.40;99.90;;;;;;5109673;28;20028;-71
2021/12/13 00:50:13;;;;;;;185.65;60.17;;;9.40;99.90;;;;;;5110768;28;20027;-71
2021/12/13 00:52:42;;;;;;;194.75;62.33;;;9.40;99.90;;;;;;5104306;28;20069;-71
2021/12/13 00:55:15;;;;;;;196.52;61.42;;;9.40;99.90;;;;;;5079113;28;20050;-71
2021/12/13 00:57:44;;;;;;;178.80;60.65;;;9.40;99.90;;;;;;5095595;28;20439;-71
2021/12/13 01:02:56;;;;;;;177.32;60.63;;;9.40;99.90;;;;;;5112286;27;20355;-72
2021/12/13 01:06:02;;;;;;;178.02;59.38;;;9.40;99.90;;;;;;5110842;28;20468;-71
2021/12/13 01:11:51;;;;;;;188.18;60.63;;;9.40;99.90;;;;;;5112234;27;20287;-75
2021/12/13 01:14:43;;;;;;;189.63;60.35;;;9.40;99.90;;;;;;5111350;28;20020;-75
2021/12/13 01:17:25;;;;;;;183.13;60.13;;;9.40;99.90;;;;;;5094181;28;20028;-75
2021/12/13 01:20:00;;;;;;;169.75;58.72;;;9.40;99.90;;;;;;5110448;28;20019;-75
2021/12/13 01:25:37;;;;;;;176.52;60.80;;;9.40;99.90;;;;;;5111440;28;20030;-75
2021/12/13 01:28:27;;;;;;;170.88;59.00;;;9.40;99.90;;;;;;5112537;28;20019;-76
2021/12/13 01:31:00;;;;;;;165.13;58.13;;;9.40;99.90;;;;;;5109673;28;20028;-75
2021/12/13 01:33:27;;;;;;;;;;;9.40;99.90;;;;;;5111788;28;20115;-75
2021/12/13 01:35:55;;;;;;;167.13;58.15;;;9.40;99.90;;;;;;5144366;27;19911;-75
2021/12/13 01:38:33;;;;;;;175.15;58.40;;;9.40;99.90;;;;;;5111424;28;20016;-74
2021/12/13 01:41:08;;;;;;;172.93;57.30;;;9.40;99.90;;;;;;5111124;28;20047;-75
2021/12/13 01:43:36;;;;;;;174.25;58.72;;;9.40;99.90;;;;;;5111362;28;20032;-75
2021/12/13 01:46:01;;;;;;;166.73;58.08;;;9.40;99.90;;;;;;5111049;28;20035;-75
2021/12/13 01:48:33;;;;;;;175.18;57.83;;;9.30;99.90;;;;;;5092592;28;20123;-75
2021/12/13 01:51:06;;;;;;;176.07;58.42;;;9.40;99.90;;;;;;5109376;28;20078;-75
2021/12/13 01:53:39;;;;;;;164.50;55.85;;;9.40;99.90;;;;;;5110254;28;20020;-74
2021/12/13 01:56:23;;;;;;;167.55;57.75;;;9.30;99.90;;;;;;5110882;28;20020;-75
2021/12/13 01:58:50;;;;;;;167.57;58.38;;;9.30;99.90;;;;;;5109758;28;20024;-75
2021/12/13 02:01:21;;;;;;;160.23;56.95;;;9.40;99.90;;;;;;5109215;28;20370;-74
2021/12/13 02:03:54;;;;;;;167.25;57.00;;;9.40;99.90;;;;;;5109578;28;20519;-75
2021/12/13 02:06:31;;;;;;;159.02;56.30;;;9.40;99.90;;;;;;5110957;28;20489;-75
2021/12/13 02:09:00;;;;;;;154.13;57.72;;;9.40;99.90;;;;;;5109073;28;20501;-74
2021/12/13 02:11:29;;;;;;;162.80;57.80;;;9.40;99.90;;;;;;5093274;28;20046;-74
2021/12/13 02:14:07;;;;;;;152.82;57.80;;;9.40;99.90;;;;;;5110830;28;20016;-74
2021/12/13 02:17:10;;;;;;;149.05;56.60;;;9.40;99.90;;;;;;5110531;28;20069;-76
2021/12/13 02:19:32;;;;;;;161.70;59.30;;;9.40;99.90;;;;;;5109974;28;20031;-75
2021/12/13 02:22:07;;;;;;;161.05;60.05;;;9.40;99.90;;;;;;5101399;28;20051;-75
2021/12/13 02:24:36;;;;;;;157.50;58.05;;;9.40;99.90;;;;;;5095900;28;20024;-75
2021/12/13 02:27:04;;;;;;;147.95;57.35;;;9.40;99.90;;;;;;5095829;28;20492;-75
2021/12/13 02:29:36;;;;;;;153.10;58.05;;;9.40;99.90;;;;;;5096845;28;20024;-75
2021/12/13 02:32:07;;;;;;;140.93;54.72;;;9.40;99.90;;;;;;5095200;28;20020;-74
2021/12/13 02:34:34;;;;;;;142.57;53.70;;;9.40;99.90;;;;;;5078688;28;20027;-75
2021/12/13 02:37:00;;;;;;;142.32;53.85;;;9.40;99.90;;;;;;5096217;28;20561;-75
2021/12/13 02:39:30;;;;;;;127.78;53.28;;;9.40;99.90;;;;;;5095300;28;20056;-75
2021/12/13 02:41:57;;;;;;;135.45;55.08;;;9.40;99.90;;;;;;5095713;28;20473;-75
2021/12/13 02:44:28;;;;;;;141.27;55.85;;;9.40;99.90;;;;;;5095026;28;20434;-74
2021/12/13 02:46:57;;;;;;;152.93;57.45;;;9.40;99.90;;;;;;5094775;28;20028;-75
2021/12/13 02:49:23;;;;;;;157.60;57.78;;;9.40;99.90;;;;;;5096181;28;20020;-74
2021/12/13 02:51:53;;;;;;;155.10;57.30;;;9.40;99.90;;;;;;5095334;28;20362;-75
2021/12/13 02:54:24;;;;;;;145.27;56.63;;;9.40;99.90;;;;;;5096446;28;20466;-75
2021/12/13 02:57:16;;;;;;;157.50;58.28;;;9.40;99.90;;;;;;5096147;28;20040;-75
2021/12/13 02:59:47;;;;;;;152.27;60.13;;;9.40;99.90;;;;;;5094645;28;20024;-75
2021/12/13 03:02:21;;;;;;;155.95;57.90;;;9.40;99.90;;;;;;5096040;28;20035;-75
2021/12/13 03:04:48;;;;;;;161.55;60.35;;;9.40;99.90;;;;;;5095039;28;20034;-75
2021/12/13 03:07:19;;;;;;;160.73;59.28;;;9.40;99.90;;;;;;5078085;28;20470;-75
2021/12/13 03:09:48;;;;;;;165.45;61.35;;;9.40;99.90;;;;;;5095732;28;20040;-75
2021/12/13 03:12:16;;;;;;;181.38;62.75;;;9.40;99.90;;;;;;5095845;28;20026;-75
2021/12/13 03:14:48;;;;;;;189.18;66.28;;;9.40;99.90;;;;;;5095781;28;20019;-75
2021/12/13 03:17:38;;;;;;;180.27;64.28;;;9.40;99.90;;;;;;5096014;28;20107;-75
2021/12/13 03:20:28;;;;;;;176.50;63.90;;;9.40;99.90;;;;;;5094183;28;20055;-75
2021/12/13 03:23:17;;;;;;;175.52;64.70;;;9.40;99.90;;;;;;5095888;28;20024;-75
2021/12/13 03:26:06;;;;;;;183.52;65.32;;;9.40;99.90;;;;;;5095317;28;20140;-75
2021/12/13 03:29:11;;;;;;;183.57;64.28;;;9.40;99.90;;;;;;5094806;28;20107;-75
2021/12/13 03:31:44;;;;;;;185.05;65.53;;;9.40;99.90;;;;;;5111881;28;20409;-74
2021/12/13 03:34:22;;;;;;;185.93;68.18;;;9.40;99.90;;;;;;5094695;28;20067;-75
2021/12/13 03:36:56;;;;;;;176.50;67.05;;;9.40;99.90;;;;;;5095604;28;20024;-74
2021/12/13 03:39:29;;;;;;;190.80;68.88;;;9.40;99.90;;;;;;5095605;28;20148;-74
2021/12/13 03:41:57;;;;;;;180.98;68.40;;;9.40;99.90;;;;;;5094639;28;20024;-74
2021/12/13 03:44:29;;;;;;;180.88;68.55;;;9.30;99.90;;;;;;5095512;28;20024;-75
2021/12/13 03:47:07;;;;;;;183.63;67.22;;;9.30;99.90;;;;;;5094240;28;20111;-75
2021/12/13 03:49:46;;;;;;;183.32;67.22;;;9.40;99.90;;;;;;5094270;28;20099;-75
2021/12/13 03:52:15;;;;;;;178.30;68.65;;;9.40;99.90;;;;;;5094305;28;20020;-75
2021/12/13 03:54:42;;;;;;;175.32;67.82;;;9.30;99.90;;;;;;5093451;28;20024;-75
2021/12/13 03:57:11;;;;;;;169.73;67.75;;;9.30;99.90;;;;;;5095183;28;20032;-75
2021/12/13 03:59:39;;;;;;;162.50;64.10;;;9.30;99.90;;;;;;5094908;28;20492;-75
2021/12/13 04:02:10;;;;;;;166.52;64.88;;;9.30;99.90;;;;;;5093326;28;20028;-75
2021/12/13 04:04:46;;;;;;;163.10;62.38;;;9.30;99.90;;;;;;5094556;28;20020;-75
2021/12/13 04:07:24;;;;;;;162.23;63.30;;;9.30;99.90;;;;;;5093594;28;20020;-75
2021/12/13 04:09:55;;;;;;;162.45;62.63;;;9.30;99.90;;;;;;5094490;28;20126;-75
2021/12/13 04:12:28;;;;;;;157.68;61.45;;;9.30;99.90;;;;;;5093515;28;20019;-75
2021/12/13 04:15:00;;;;;;;166.98;62.83;;;9.30;99.90;;;;;;5093548;28;20464;-75
2021/12/13 04:17:42;;;;;;;163.20;64.30;;;9.30;99.90;;;;;;5093033;28;20393;-75
2021/12/13 04:20:14;;;;;;;169.00;65.03;;;9.30;99.90;;;;;;5094757;28;20434;-74
2021/12/13 04:22:47;;;;;;;163.52;64.47;;;9.30;99.90;;;;;;5093381;28;20051;-74
2021/12/13 04:25:18;;;;;;;175.60;66.60;;;9.30;99.90;;;;;;5094777;28;20378;-74
2021/12/13 04:27:57;;;;;;;161.27;61.72;;;9.30;99.90;;;;;;5094676;28;20055;-74
2021/12/13 04:30:29;;;;;;;153.43;60.67;;;9.30;99.90;;;;;;5094266;28;20099;-74
2021/12/13 04:33:00;;;;;;;155.25;58.97;;;9.30;99.90;;;;;;5094561;28;20416;-74
2021/12/13 04:35:27;;;;;;;137.15;57.70;;;9.20;99.90;;;;;;5094279;28;20108;-75
2021/12/13 04:37:56;;;;;;;134.48;57.45;;;9.20;99.90;;;;;;5110286;28;20043;-75
2021/12/13 04:40:27;;;;;;;133.07;54.85;;;9.20;99.90;;;;;;5094215;28;20074;-74
2021/12/13 04:42:59;;;;;;;135.48;56.15;;;9.20;99.90;;;;;;5093338;28;20031;-75
2021/12/13 04:45:27;;;;;;;130.25;53.90;;;9.20;99.90;;;;;;5092777;28;20028;-74
2021/12/13 04:48:03;;;;;;;128.38;53.88;;;9.20;99.90;;;;;;5076309;28;20028;-74
2021/12/13 04:50:34;;;;;;;125.18;53.10;;;9.20;99.90;;;;;;5094021;28;20042;-74
2021/12/13 04:53:00;;;;;;;129.65;55.55;;;9.20;99.90;;;;;;5094343;28;20205;-75
2021/12/13 04:55:32;;;;;;;128.95;53.35;;;9.20;99.90;;;;;;5094303;28;20031;-75
2021/12/13 04:58:01;;;;;;;131.10;54.90;;;9.20;99.90;;;;;;5093951;28;20019;-75
2021/12/13 05:00:32;;;;;;;128.25;53.38;;;9.20;99.90;;;;;;5094234;28;20036;-75
2021/12/13 05:03:02;;;;;;;127.53;52.67;;;9.20;99.90;;;;;;5076092;28;20024;-74
2021/12/13 05:05:31;;;;;;;117.70;52.10;;;9.10;99.90;;;;;;5094151;28;20031;-75
2021/12/13 05:07:59;;;;;;;119.40;53.05;;;9.10;99.90;;;;;;5075734;28;20036;-73
2021/12/13 05:10:25;;;;;;;117.97;49.85;;;9.10;99.90;;;;;;5093562;28;20036;-75
2021/12/13 05:13:03;;;;;;;120.55;50.92;;;9.10;99.90;;;;;;5093778;28;20023;-74
2021/12/13 05:15:30;;;;;;;111.28;48.60;;;9.10;99.90;;;;;;5092558;28;20016;-76
2021/12/13 05:17:57;;;;;;;117.90;50.15;;;9.10;99.90;;;;;;5099023;28;20028;-75
2021/12/13 05:20:32;;;;;;;106.32;48.17;;;9.10;99.90;;;;;;5100392;28;20481;-74
2021/12/13 05:23:05;;;;;;;104.00;48.33;;;9.10;99.90;;;;;;5092189;28;20435;-75
2021/12/13 05:25:37;;;;;;;109.25;47.33;;;9.00;99.90;;;;;;5093954;28;20027;-72
2021/12/13 05:28:10;;;;;;;102.25;45.40;;;9.10;99.90;;;;;;5093927;28;20030;-73
2021/12/13 05:30:43;;;;;;;103.80;46.78;;;9.00;99.90;;;;;;5093852;28;20029;-72
2021/12/13 05:33:10;;;;;;;103.47;44.60;;;9.00;99.90;;;;;;5093839;28;20020;-72
2021/12/13 05:35:44;;;;;;;107.55;44.95;;;9.00;99.90;;;;;;5093877;28;20020;-75
2021/12/13 05:38:22;;;;;;;94.95;42.45;;;9.00;99.90;;;;;;5075887;28;20498;-72
2021/12/13 05:40:48;;;;;;;100.25;42.83;;;9.00;99.90;;;;;;5093806;28;20067;-72
2021/12/13 05:43:22;;;;;;;87.00;39.53;;;9.00;99.90;;;;;;5093786;28;20024;-73
2021/12/13 05:45:56;;;;;;;92.15;42.92;;;9.00;99.90;;;;;;5093814;28;20024;-73
2021/12/13 05:48:36;;;;;;;85.72;40.38;;;9.00;99.90;;;;;;5093774;28;20369;-73
2021/12/13 05:51:07;;;;;;;89.10;39.72;;;9.00;99.90;;;;;;5076635;28;20035;-73
2021/12/13 05:53:42;;;;;;;77.78;37.10;;;9.00;99.90;;;;;;5093697;28;20450;-72
2021/12/13 05:56:14;;;;;;;78.75;38.58;;;9.00;99.90;;;;;;5092996;28;20020;-75
2021/12/13 05:58:53;;;;;;;76.60;35.70;;;9.00;99.90;;;;;;5096252;28;20027;-74
2021/12/13 06:04:22;;;;;;;71.90;34.22;;;9.00;99.90;;;;;;5112199;27;20449;-71
2021/12/13 06:06:52;;;;;;;69.43;33.78;;;8.90;99.90;;;;;;5093185;28;20404;-71
2021/12/13 06:09:41;;;;;;;61.60;31.70;;;9.00;99.90;;;;;;5110519;28;20085;-70
2021/12/13 06:12:10;;;;;;;74.43;36.75;;;9.00;99.90;;;;;;5109971;28;20023;-71
2021/12/13 06:14:37;;;;;;;67.40;32.15;;;8.90;99.90;;;;;;5093378;28;20452;-71
2021/12/13 06:17:26;;;;;;;73.28;39.60;;;9.00;99.90;;;;;;5093850;28;20024;-71
2021/12/13 06:19:59;;;;;;;117.10;59.30;;;8.90;99.90;;;;;;5109939;28;20024;-71
2021/12/13 06:22:27;;;;;;;76.28;40.42;;;8.90;99.90;;;;;;5111562;28;20024;-71
2021/12/13 06:24:58;;;;;;;62.60;31.67;;;8.90;99.90;;;;;;5093054;28;20151;-72
2021/12/13 06:27:28;;;;;;;64.32;31.88;;;8.90;99.90;;;;;;5109690;28;20016;-71
2021/12/13 06:29:59;;;;;;;71.65;35.17;;;8.90;99.90;;;;;;5109993;28;20020;-71
2021/12/13 06:33:06;;;;;;;69.32;35.92;;;8.90;99.90;;;;;;5110009;28;20020;-71
2021/12/13 06:38:44;;;;;;;74.13;37.78;;;8.90;99.90;;;;;;5073169;27;2348656;-71
2021/12/13 06:41:31;;;;;;;75.45;36.15;;;8.90;99.90;;;;;;5131846;28;20429;-71
2021/12/13 06:44:00;;;;;;;70.97;35.13;;;8.90;99.90;;;;;;5131804;27;20029;-71
2021/12/13 06:51:52;;;;;;;58.97;30.08;;;8.90;99.90;;;;;;5111891;27;20335;-71
2021/12/13 06:54:30;;;;;;;64.68;28.55;;;8.90;99.90;;;;;;5089753;28;20017;-72
2021/12/13 06:57:19;;;;;;;52.97;26.63;;;8.80;99.90;;;;;;5074275;28;20028;-71
2021/12/13 07:02:49;;;;;;;52.38;26.60;;;8.90;99.90;;;;;;5071651;28;20433;-71
2021/12/13 07:05:27;;;;;;;48.63;25.05;;;8.90;99.90;;;;;;5069614;28;20020;-71
2021/12/13 07:08:01;;;;;;;43.22;23.08;;;8.90;99.90;;;;;;5070219;28;20021;-71
2021/12/13 07:10:35;;;;;;;47.97;24.83;;;8.90;99.90;;;;;;5068486;28;20029;-71
2021/12/13 07:13:07;;;;;;;47.40;24.05;;;8.90;99.90;;;;;;5069120;28;20035;-71
2021/12/13 07:18:20;;;;;;;42.08;22.80;;;8.90;99.90;;;;;;5091605;28;20386;-71
2021/12/13 07:20:54;;;;;;;45.42;23.70;;;8.80;99.90;;;;;;5089705;28;20032;-71
2021/12/13 07:23:20;;;;;;;45.60;23.25;;;8.80;99.90;;;;;;5089255;28;20070;-71
2021/12/13 07:25:50;;;;;;;46.88;23.60;;;8.80;99.90;;;;;;5089783;28;20434;-71
2021/12/13 07:28:36;;;;;;;48.90;25.10;;;8.80;99.90;;;;;;5089795;28;20026;-70
2021/12/13 07:31:06;;;;;;;49.63;26.23;;;8.80;99.90;;;;;;5089434;28;20028;-70
2021/12/13 07:33:43;;;;;;;48.35;25.42;;;8.90;99.90;;;;;;5089204;28;20027;-71
2021/12/13 07:36:15;;;;;;;47.45;26.48;;;8.90;99.90;;;;;;5089054;28;20452;-71
2021/12/13 07:38:48;;;;;;;50.45;25.25;;;8.90;99.90;;;;;;5088305;28;20028;-71
2021/12/13 07:41:14;;;;;;;50.40;27.17;;;8.90;99.90;;;;;;5090811;28;20025;-71
2021/12/13 07:43:43;;;;;;;48.10;26.90;;;8.80;99.90;;;;;;5072331;28;20029;-71
2021/12/13 07:48:59;;;;;;;50.15;27.23;;;8.80;99.90;;;;;;5070550;28;20761;-71
2021/12/13 07:51:33;;;;;;;50.67;25.52;;;8.80;99.90;;;;;;5068566;28;20405;-71
2021/12/13 07:56:45;;;;;;;41.63;24.85;;;8.90;99.90;;;;;;5091544;27;20173;-75
2021/12/13 07:59:16;;;;;;;42.95;23.90;;;8.80;99.90;;;;;;5089639;28;20032;-75
2021/12/13 08:04:33;;;;;;;47.17;28.77;;;8.80;99.90;;;;;;5108749;27;20901;-71
2021/12/13 08:07:23;;;;;;;43.90;24.35;;;8.90;99.90;;;;;;5109052;28;20016;-71
2021/12/13 08:09:55;;;;;;;39.42;21.83;;;8.90;99.90;;;;;;5108185;28;20024;-71
2021/12/13 08:12:30;;;;;;;38.97;20.95;;;8.90;99.90;;;;;;5092484;28;20036;-70
2021/12/13 08:15:12;;;;;;;45.38;20.95;;;8.90;99.90;;;;;;5122925;28;20445;-71
2021/12/13 08:17:56;;;;;;;34.67;19.45;;;8.80;99.90;;;;;;5111528;28;20430;-71
2021/12/13 08:20:45;;;;;;;38.95;19.98;;;8.80;99.90;;;;;;5107282;28;20027;-71
2021/12/13 08:23:19;;;;;;;39.22;20.35;;;8.80;99.90;;;;;;5101130;28;20020;-71
2021/12/13 08:25:48;;;;;;;38.88;20.80;;;8.90;99.90;;;;;;5088767;28;20024;-71
2021/12/13 08:28:19;;;;;;;35.75;20.40;;;8.90;99.90;;;;;;5103709;28;20024;-71
2021/12/13 08:30:51;;;;;;;46.33;21.77;;;8.90;99.90;;;;;;5108733;28;20020;-71
2021/12/13 08:33:24;;;;;;;40.60;22.27;;;8.90;99.90;;;;;;5109375;28;20024;-71
2021/12/13 08:36:07;;;;;;;43.58;22.48;;;8.90;99.90;;;;;;5089011;28;20029;-71
2021/12/13 08:38:42;;;;;;;42.90;23.80;;;8.90;99.90;;;;;;5090168;28;20054;-71
2021/12/13 08:43:57;;;;;;;34.88;20.65;;;8.90;99.90;;;;;;5111544;27;20363;-71
2021/12/13 08:46:34;;;;;;;38.25;21.05;;;8.90;99.90;;;;;;5109497;28;20028;-71
2021/12/13 08:49:10;;;;;;;34.13;19.40;;;8.90;99.90;;;;;;5110256;28;20081;-71
2021/12/13 08:51:36;;;;;;;33.17;18.00;;;8.90;99.90;;;;;;5093702;28;20047;-72
2021/12/13 08:54:09;;;;;;;38.72;20.08;;;8.90;99.90;;;;;;5109092;28;20058;-71
2021/12/13 08:56:44;;;;;;;70.15;37.70;;;9.00;99.90;;;;;;5110685;28;20027;-72
2021/12/13 08:59:23;;;;;;;50.35;27.13;;;9.00;99.90;;;;;;5110898;28;20061;-71
2021/12/13 09:01:56;;;;;;;29.75;17.45;;;9.00;99.90;;;;;;5109410;28;20028;-72
2021/12/13 09:04:25;;;;;;;34.88;19.67;;;9.00;99.90;;;;;;5108525;28;20022;-71
2021/12/13 09:06:55;;;;;;;27.65;16.58;;;9.00;99.90;;;;;;5109046;28;20020;-71
2021/12/13 09:09:22;;;;;;;31.85;18.02;;;9.00;99.90;;;;;;5092471;28;20023;-72
2021/12/13 09:11:56;;;;;;;30.58;17.48;;;9.10;99.90;;;;;;5092105;28;20028;-72
2021/12/13 09:14:36;;;;;;;31.08;17.92;;;9.10;99.90;;;;;;5093186;28;20024;-71
2021/12/13 09:20:07;;;;;;;37.28;20.02;;;9.10;99.90;;;;;;5111720;27;20384;-72
2021/12/13 09:22:36;;;;;;;32.55;19.65;;;9.10;99.90;;;;;;5092214;28;20025;-71
2021/12/13 09:25:10;;;;;;;34.20;19.35;;;9.10;99.90;;;;;;5111185;28;20089;-70
2021/12/13 09:30:38;;;;;;;36.03;18.00;;;9.10;99.90;;;;;;5108841;27;1168389;-72
2021/12/13 09:33:13;;;;;;;26.80;15.90;;;9.20;99.90;;;;;;5130591;28;20043;-72
2021/12/13 09:35:59;;;;;;;30.15;16.20;;;9.20;99.90;;;;;;5129103;27;20072;-72
2021/12/13 09:38:39;;;;;;;36.13;20.25;;;9.20;99.90;;;;;;5105315;28;20085;-72
2021/12/13 09:41:27;;;;;;;29.17;17.25;;;9.20;99.90;;;;;;5110474;28;20042;-71
2021/12/13 09:44:02;;;;;;;28.85;15.32;;;9.20;99.90;;;;;;5129127;27;20022;-71
2021/12/13 09:46:49;;;;;;;30.42;16.17;;;9.20;99.90;;;;;;5112808;28;20027;-72
2021/12/13 09:49:26;;;;;;;27.33;16.38;;;9.20;99.90;;;;;;5129464;28;20425;-72
2021/12/13 09:51:57;;;;;;;27.15;16.48;;;9.20;99.90;;;;;;5130982;27;20007;-72
2021/12/13 09:54:28;;;;;;;28.27;16.27;;;9.30;99.90;;;;;;5131577;27;20047;-72
2021/12/13 09:56:54;;;;;;;32.45;17.55;;;9.20;99.90;;;;;;5129917;28;20019;-72
2021/12/13 09:59:28;;;;;;;26.27;16.27;;;9.30;99.90;;;;;;5129273;28;20031;-71
2021/12/13 10:01:58;;;;;;;25.90;15.43;;;9.30;99.90;;;;;;5131388;27;20059;-71
2021/12/13 10:04:37;;;;;;;35.25;16.70;;;9.30;99.90;;;;;;5112508;28;20019;-72
2021/12/13 10:07:15;;;;;;;33.42;17.85;;;9.30;99.90;;;;;;5119753;28;20015;-72
2021/12/13 10:09:45;;;;;;;29.60;16.40;;;9.30;99.90;;;;;;5127381;27;20027;-72
2021/12/13 10:12:19;;;;;;;30.45;16.25;;;9.30;99.90;;;;;;5110341;28;20070;-72
2021/12/13 10:14:51;;;;;;;26.88;16.33;;;9.40;99.90;;;;;;5129611;28;20050;-72
2021/12/13 10:17:20;;;;;;;25.85;15.88;;;9.40;99.90;;;;;;5129488;28;20114;-72
2021/12/13 10:19:50;;;;;;;32.17;15.45;;;9.30;99.90;;;;;;5129368;28;20475;-72
2021/12/13 10:22:21;;;;;;;27.35;15.95;;;9.30;99.90;;;;;;5091908;28;20028;-72
2021/12/13 10:24:56;;;;;;;26.30;15.27;;;9.30;99.90;;;;;;5126588;28;20031;-72
2021/12/13 10:27:24;;;;;;;28.92;16.50;;;9.40;99.90;;;;;;5130470;27;20026;-72
2021/12/13 10:29:54;;;;;;;35.67;15.73;;;9.40;99.90;;;;;;5110635;28;20410;-72
2021/12/13 10:32:26;;;;;;;28.63;15.88;;;9.40;99.90;;;;;;5128030;28;20027;-72
2021/12/13 10:34:57;;;;;;;24.85;15.07;;;9.40;99.90;;;;;;5129928;27;20047;-72
2021/12/13 10:37:27;;;;;;;27.73;15.38;;;9.40;99.90;;;;;;5109151;28;20026;-72
2021/12/13 10:39:58;;;;;;;33.40;16.88;;;9.40;99.90;;;;;;5107386;28;20034;-72
2021/12/13 10:42:30;;;;;;;24.77;15.18;;;9.40;99.90;;;;;;5108648;28;20365;-72
2021/12/13 10:44:57;;;;;;;28.98;16.38;;;9.30;99.90;;;;;;5116019;28;20096;-72
2021/12/13 10:47:35;;;;;;;25.85;16.00;;;9.40;99.90;;;;;;5115363;28;20164;-72
2021/12/13 10:50:06;;;;;;;31.23;16.05;;;9.40;99.90;;;;;;5098970;28;20043;-72
2021/12/13 10:52:37;;;;;;;23.88;15.40;;;9.40;99.90;;;;;;5098368;28;20122;-72
2021/12/13 10:55:16;;;;;;;26.80;16.73;;;9.40;99.90;;;;;;5114911;28;20042;-72
2021/12/13 10:57:47;;;;;;;29.45;15.45;;;9.40;99.90;;;;;;5114617;28;20085;-72
2021/12/13 11:00:18;;;;;;;27.52;15.98;;;9.40;99.90;;;;;;5084515;28;20111;-72
2021/12/13 11:02:45;;;;;;;28.95;15.57;;;9.40;99.90;;;;;;5109972;28;20024;-72
2021/12/13 11:05:16;;;;;;;24.48;15.05;;;9.40;99.90;;;;;;5116150;28;20495;-71
2021/12/13 11:07:43;;;;;;;30.88;16.27;;;9.50;99.90;;;;;;5115414;28;20023;-71
2021/12/13 11:10:15;;;;;;;32.97;16.13;;;9.50;99.90;;;;;;5114486;28;20028;-71
2021/12/13 11:12:45;;;;;;;28.50;16.15;;;9.40;99.90;;;;;;5111592;28;20047;-71
2021/12/13 11:15:22;;;;;;;30.30;16.40;;;9.40;99.90;;;;;;5086960;28;20378;-72
2021/12/13 11:17:48;;;;;;;26.55;15.52;;;9.50;99.90;;;;;;5095546;28;20020;-71
2021/12/13 11:20:20;;;;;;;27.80;16.25;;;9.50;99.90;;;;;;5113859;28;20023;-72
2021/12/13 11:22:46;;;;;;;29.88;16.60;;;9.50;99.90;;;;;;5116371;28;20026;-72
2021/12/13 11:25:19;;;;;;;26.50;15.85;;;9.50;99.90;;;;;;5113667;28;20016;-72
2021/12/13 11:27:45;;;;;;;32.95;17.13;;;9.50;99.90;;;;;;5097384;28;20034;-72
2021/12/13 11:30:18;;;;;;;29.80;15.80;;;9.50;99.90;;;;;;5113230;28;20047;-72
2021/12/13 11:33:20;;;;;;;27.75;15.10;;;9.50;99.90;;;;;;5115660;28;20098;-72
2021/12/13 11:36:22;;;;;;;27.15;15.75;;;9.50;99.90;;;;;;5113693;27;20068;-72
2021/12/13 11:39:18;;;;;;;29.08;15.00;;;9.50;99.90;;;;;;5112651;28;20414;-72
2021/12/13 11:42:23;;;;;;;31.48;15.02;;;9.50;99.90;;;;;;5110644;28;20020;-72
2021/12/13 11:45:15;;;;;;;26.35;15.15;;;9.50;99.90;;;;;;5112091;28;20032;-72
2021/12/13 11:50:57;;;;;;;29.48;15.35;;;9.50;99.90;;;;;;5112735;27;20124;-72
2021/12/13 11:53:55;;;;;;;22.45;14.38;;;9.50;99.90;;;;;;5092684;28;20047;-71
2021/12/13 11:56:50;;;;;;;26.70;14.02;;;9.50;99.90;;;;;;5079046;28;20024;-72
2021/12/13 11:59:51;;;;;;;24.40;14.57;;;9.50;99.90;;;;;;5101758;28;20073;-72
2021/12/13 12:02:44;;;;;;;29.75;15.70;;;9.50;99.90;;;;;;5091940;28;20032;-72
2021/12/13 12:05:40;;;;;;;26.90;14.60;;;9.50;99.90;;;;;;5091107;28;20500;-72
2021/12/13 12:08:45;;;;;;;31.25;15.10;;;9.50;99.90;;;;;;5091675;28;20033;-71
2021/12/13 12:11:49;;;;;;;34.40;16.35;;;9.50;99.90;;;;;;5088239;28;20024;-72
2021/12/13 12:14:16;;;;;;;27.30;16.60;;;9.50;99.90;;;;;;5089474;28;20095;-72
2021/12/13 12:16:47;;;;;;;29.58;17.00;;;9.50;99.90;;;;;;5072121;28;20024;-72
2021/12/13 12:19:18;;;;;;;28.08;18.35;;;9.50;99.90;;;;;;5093879;28;20574;-72
2021/12/13 12:21:57;;;;;;;28.50;18.67;;;9.50;99.90;;;;;;5092691;28;20032;-72
2021/12/13 12:24:26;;;;;;;30.98;19.60;;;9.50;99.90;;;;;;5083895;28;20053;-71
2021/12/13 12:26:57;;;;;;;26.73;18.40;;;9.40;99.90;;;;;;5099498;28;20034;-72
2021/12/13 12:29:30;;;;;;;28.52;17.00;;;9.50;99.90;;;;;;5085723;28;20416;-71
2021/12/13 12:32:05;;;;;;;27.42;16.10;;;9.50;99.90;;;;;;5090432;28;20016;-71
2021/12/13 12:34:33;;;;;;;34.08;14.60;;;9.50;99.90;;;;;;5095207;28;20027;-72
2021/12/13 12:39:52;;;;;;;28.52;14.63;;;9.50;99.90;;;;;;5067896;27;1908706;-71
2021/12/13 12:42:30;;;;;;;23.25;13.82;;;9.50;99.90;;;;;;5127024;28;20393;-71
2021/12/13 12:50:15;;;;;;;21.60;13.00;;;9.50;99.90;;;;;;5097067;27;20425;-72
2021/12/13 12:53:01;;;;;;;17.98;12.85;;;9.50;99.90;;;;;;5076458;28;20377;-72
2021/12/13 12:55:33;;;;;;;25.67;13.63;;;9.50;99.90;;;;;;5089871;28;20020;-71
2021/12/13 12:58:05;;;;;;;25.17;15.00;;;9.50;99.90;;;;;;5089128;28;20032;-72
2021/12/13 13:00:30;;;;;;;26.80;14.38;;;9.50;99.90;;;;;;5091261;28;20048;-72
2021/12/13 13:02:58;;;;;;;25.20;14.32;;;9.50;99.90;;;;;;5074311;28;20426;-72
2021/12/13 13:05:27;;;;;;;21.55;14.18;;;9.50;99.90;;;;;;5104666;28;20028;-72
2021/12/13 13:07:54;;;;;;;23.15;14.43;;;9.40;99.90;;;;;;5078577;28;20020;-72
2021/12/13 13:10:25;;;;;;;25.90;15.20;;;9.50;99.90;;;;;;5090073;28;20035;-72
2021/12/13 13:12:54;;;;;;;29.05;15.57;;;9.50;99.90;;;;;;5090233;28;20096;-72
2021/12/13 13:15:27;;;;;;;25.77;16.70;;;9.50;99.90;;;;;;5089108;28;20025;-72
2021/12/13 13:18:04;;;;;;;26.73;16.42;;;9.50;99.90;;;;;;5087156;28;20028;-71
2021/12/13 13:20:39;;;;;;;24.83;15.30;;;9.50;99.90;;;;;;5089940;28;20039;-71
2021/12/13 13:23:06;;;;;;;23.42;15.63;;;9.60;99.90;;;;;;5094724;28;20043;-72
2021/12/13 13:25:43;;;;;;;22.88;16.10;;;9.50;99.90;;;;;;5090170;28;20493;-72
2021/12/13 13:28:29;;;;;;;25.65;16.38;;;9.60;99.90;;;;;;5090897;28;20461;-72
2021/12/13 13:31:20;;;;;;;22.33;15.70;;;9.50;99.90;;;;;;5071331;28;20099;-72
2021/12/13 13:33:49;;;;;;;22.83;15.55;;;9.50;99.90;;;;;;5094971;28;20047;-72
2021/12/13 13:36:32;;;;;;;22.52;15.48;;;9.50;99.90;;;;;;5087317;28;20016;-72
2021/12/13 13:39:19;;;;;;;23.73;15.93;;;9.50;99.90;;;;;;5086103;28;20028;-72
2021/12/13 13:41:49;;;;;;;24.88;15.20;;;9.60;99.90;;;;;;5093017;28;20043;-72
2021/12/13 13:44:20;;;;;;;23.05;15.20;;;9.50;99.90;;;;;;5090389;28;20547;-72
2021/12/13 13:46:46;;;;;;;23.73;14.48;;;9.50;99.90;;;;;;5092806;28;20036;-72
2021/12/13 13:49:19;;;;;;;22.50;14.73;;;9.60;99.90;;;;;;5088644;28;20431;-72
2021/12/13 13:51:46;;;;;;;19.15;13.65;;;9.60;99.90;;;;;;5083135;28;20366;-72
2021/12/13 13:54:12;;;;;;;21.77;12.85;;;9.60;99.90;;;;;;5089719;28;20028;-72
2021/12/13 13:56:42;;;;;;;21.33;13.48;;;9.60;99.90;;;;;;5088381;28;20028;-72
2021/12/13 13:59:12;;;;;;;21.13;13.38;;;9.60;99.90;;;;;;5090141;28;20020;-71
2021/12/13 14:04:27;;;;;;;21.67;14.75;;;9.60;99.90;;;;;;5110665;27;20370;-70
2021/12/13 14:07:02;;;;;;;26.20;15.57;;;9.60;99.90;;;;;;5111124;28;20024;-70